Latest Weather Observations for Portland Harbour

IDV60801

Issued at 10:35 pm EST Thursday 24 July 2014 (issued every 30 minutes, with the page automatically refreshed every 10 minutes)

About weather observations | Map of weather stations | Latest weather observations for VIC | Other Formats
Station Details ID: 090192 Name: PORTLAND NTC AWS Lat: -38.34 Lon: 141.61 Height: 0.0 m
Data from the previous 72 hours. | See also: Recent months for locations in Victoria
Date/Time
EST
Temp
°C
App
Temp
°C
Dew
Point
Rel
Hum
%
Delta-T
°C
Wind Press
QNH
hPa
Press
MSL
hPa
Rain
since 9 am
mm
Dir
 
Spd
km/h
Gust
km/h
Spd
kts
Gust
kts
24/10:30pm 12.0 - - - - NNE 17 20 9 11 1009.6 - -
24/10:00pm 12.2 - - - - NNE 20 24 11 13 1009.6 1009.6 -
24/09:30pm 12.0 - - - - N 22 26 12 14 1009.7 - -
24/09:00pm 12.2 - - - - NNE 22 30 12 16 1009.7 1009.7 -
24/08:30pm 12.3 - - - - NNE 24 28 13 15 1009.7 - -
24/08:00pm 12.2 - - - - NNE 20 22 11 12 1009.5 1009.5 -
24/07:30pm 12.5 - - - - NE 30 37 16 20 1009.5 - -
24/07:00pm 12.7 - - - - ENE 30 35 16 19 1009.2 1009.2 -
24/06:30pm 12.9 - - - - ENE 30 35 16 19 1009.1 - -
24/06:00pm 12.8 - - - - ENE 28 33 15 18 1008.9 1008.9 -
24/05:30pm 12.6 - - - - NE 30 35 16 19 1008.9 - -
24/05:00pm 12.9 - - - - ENE 35 41 19 22 1008.9 1008.9 -
24/04:30pm 13.0 - - - - ENE 39 44 21 24 1008.5 - -
24/04:00pm 12.7 - - - - E 37 44 20 24 1008.2 1008.2 -
24/03:30pm 12.5 - - - - E 33 39 18 21 1008.4 - -
24/03:00pm 12.3 - - - - E 30 35 16 19 1008.6 1008.6 -
24/02:30pm 12.0 - - - - E 32 37 17 20 1008.7 - -
24/02:00pm 11.6 - - - - E 28 33 15 18 1009.1 1009.1 -
24/01:30pm 11.6 - - - - ENE 33 41 18 22 1009.7 - -
24/01:00pm 11.5 - - - - ENE 32 37 17 20 1010.1 1010.1 -
24/12:30pm 11.2 - - - - ENE 30 35 16 19 1010.8 - -
24/12:00pm 11.4 - - - - ENE 28 33 15 18 1011.3 1011.3 -
24/11:30am 11.0 - - - - ENE 30 35 16 19 1011.8 - -
24/11:00am 10.6 - - - - ENE 30 35 16 19 1012.4 1012.4 -
24/10:30am 10.6 - - - - ENE 28 33 15 18 1012.7 - -
24/10:00am 10.9 - - - - NE 26 32 14 17 1013.0 1013.0 -
24/09:30am 10.7 - - - - NE 26 30 14 16 1013.0 - -
24/09:00am 10.8 - - - - NE 30 35 16 19 1012.9 1012.9 -
24/08:30am 10.8 - - - - NE 32 37 17 20 1012.9 - -
24/08:00am 10.6 - - - - NE 28 33 15 18 1012.9 1012.9 -
24/07:30am 10.7 - - - - NE 28 33 15 18 1012.8 - -
24/07:00am 11.0 - - - - NE 28 32 15 17 1012.8 1012.8 -
24/06:30am 10.5 - - - - ENE 22 30 12 16 1012.7 - -
24/06:00am 10.5 - - - - NE 20 24 11 13 1012.8 1012.8 -
24/05:30am 10.6 - - - - NE 19 22 10 12 1013.0 - -
24/05:00am 9.8 - - - - NE 7 11 4 6 1013.3 1013.3 -
24/04:30am 10.0 - - - - NNE 9 15 5 8 1013.6 - -
24/04:00am 10.2 - - - - NNE 11 15 6 8 1013.7 1013.7 -
24/03:30am 10.1 - - - - ENE 17 20 9 11 1013.5 - -
24/03:00am 10.0 - - - - NE 13 17 7 9 1013.8 1013.8 -
24/02:30am 9.9 - - - - NE 15 20 8 11 1014.3 - -
24/02:00am 10.0 - - - - NE 11 15 6 8 1014.5 1014.5 -
24/01:30am 9.9 - - - - NE 11 15 6 8 1014.7 - -
24/01:00am 10.1 - - - - NNE 11 15 6 8 1015.1 1015.1 -
24/12:30am 9.9 - - - - NE 17 19 9 10 1015.2 - -
24/12:00am 10.3 - - - - NE 13 17 7 9 1015.4 1015.4 -
 
Date/Time
EST
Temp
°C
App
Temp
°C
Dew
Point
Rel
Hum
%
Delta-T
°C
Wind Press
QNH
hPa
Press
MSL
hPa
Rain
since 9 am
mm
Dir
 
Spd
km/h
Gust
km/h
Spd
kts
Gust
kts
23/11:30pm 10.3 - - - - NE 17 20 9 11 1015.6 - -
23/11:00pm 10.4 - - - - ENE 13 17 7 9 1015.7 1015.7 -
23/10:30pm 10.7 - - - - NE 17 19 9 10 1016.0 - -
23/10:00pm 10.4 - - - - NE 17 20 9 11 1016.3 1016.3 -
23/09:30pm 10.6 - - - - NE 15 19 8 10 1016.6 - -
23/09:00pm 10.7 - - - - NE 15 19 8 10 1017.0 1017.0 -
23/08:30pm 10.6 - - - - NNE 17 19 9 10 1017.2 - -
23/08:00pm 10.8 - - - - NNE 19 24 10 13 1017.2 1017.2 -
23/07:30pm 11.1 - - - - NNE 22 26 12 14 1017.2 - -
23/07:00pm 11.2 - - - - NNE 19 22 10 12 1017.2 1017.2 -
23/06:30pm 11.2 - - - - NNE 20 24 11 13 1017.3 - -
23/06:00pm 11.6 - - - - NNE 19 20 10 11 1017.3 1017.3 -
23/05:30pm 11.3 - - - - NNE 15 19 8 10 1017.4 - -
23/05:00pm 11.3 - - - - NNE 15 19 8 10 1017.7 1017.7 -
23/04:30pm 11.1 - - - - N 13 17 7 9 1017.8 - -
23/04:00pm 11.0 - - - - N 15 19 8 10 1017.7 1017.7 -
23/03:30pm 11.2 - - - - N 19 22 10 12 1017.8 - -
23/03:00pm 11.3 - - - - N 19 20 10 11 1017.9 1017.9 -
23/02:30pm 11.1 - - - - NNE 11 19 6 10 1017.8 - -
23/02:00pm 10.9 - - - - N 13 17 7 9 1018.3 1018.3 -
23/01:30pm 10.4 - - - - N 11 15 6 8 1018.7 - -
23/01:00pm 10.1 - - - - NE 7 11 4 6 1019.0 1019.0 -
23/12:30pm 9.8 - - - - N 13 17 7 9 1019.7 - -
23/12:00pm 9.3 - - - - NNE 6 9 3 5 1020.3 1020.3 -
23/11:30am 8.9 - - - - N 7 11 4 6 1021.1 - -
23/11:00am 8.4 - - - - N 9 11 5 6 1021.4 1021.4 -
23/10:30am 7.2 - - - - SSW 2 4 1 2 1021.6 - -
23/10:00am 6.8 - - - - NNW 2 6 1 3 1021.9 1021.9 -
23/09:30am 6.9 - - - - N 9 13 5 7 1022.5 - -
23/09:00am 4.7 - - - - W 6 7 3 4 1022.3 1022.3 -
23/08:30am 4.0 - - - - SW 6 7 3 4 1022.1 - -
23/08:00am 4.9 - - - - W 6 7 3 4 1022.2 1022.2 -
23/07:30am 3.5 - - - - W 7 9 4 5 1022.1 - -
23/07:00am 3.5 - - - - WSW 7 9 4 5 1022.1 1022.1 -
23/06:30am 3.4 - - - - WSW 7 9 4 5 1022.2 - -
23/06:00am 3.2 - - - - WSW 7 9 4 5 1022.2 1022.2 -
23/05:30am 3.4 - - - - W 7 11 4 6 1022.3 - -
23/05:00am 4.4 - - - - W 6 9 3 5 1022.1 1022.1 -
23/04:30am 3.5 - - - - W 9 11 5 6 1022.3 - -
23/04:00am 3.7 - - - - SW 6 7 3 4 1022.0 1022.0 -
23/03:30am 4.0 - - - - SW 6 6 3 3 1022.1 - -
23/03:00am 4.3 - - - - SW 6 7 3 4 1022.5 1022.5 -
23/02:30am 4.3 - - - - SSW 7 9 4 5 1022.8 - -
23/02:00am 4.6 - - - - SW 4 6 2 3 1022.9 1022.9 -
23/01:30am 4.5 - - - - WSW 6 9 3 5 1022.9 - -
23/01:00am 5.0 - - - - WSW 4 6 2 3 1023.0 1023.0 -
23/12:30am 5.2 - - - - SSW 6 7 3 4 1023.1 - -
23/12:00am 5.3 - - - - SSW 6 6 3 3 1023.7 1023.7 -
 
Date/Time
EST
Temp
°C
App
Temp
°C
Dew
Point
Rel
Hum
%
Delta-T
°C
Wind Press
QNH
hPa
Press
MSL
hPa
Rain
since 9 am
mm
Dir
 
Spd
km/h
Gust
km/h
Spd
kts
Gust
kts
22/11:30pm 5.9 - - - - SW 4 6 2 3 1024.0 - -
22/11:00pm 6.1 - - - - SW 6 7 3 4 1024.3 1024.3 -
22/10:30pm 6.1 - - - - WSW 4 6 2 3 1024.3 - -
22/10:00pm 6.7 - - - - SSW 4 7 2 4 1024.3 1024.3 -
22/09:30pm 7.0 - - - - WSW 4 6 2 3 1023.8 - -
22/09:00pm 6.9 - - - - SSW 4 4 2 2 1023.6 1023.6 -
22/08:30pm 7.9 - - - - SW 4 6 2 3 1023.8 - -
22/08:00pm 9.4 - - - - W 4 7 2 4 1023.8 1023.8 -
22/07:30pm 12.5 - - - - ENE 9 13 5 7 1023.8 - -
22/07:00pm 12.4 - - - - E 11 13 6 7 1023.8 1023.8 -
22/06:30pm 12.3 - - - - E 9 11 5 6 1023.7 - -
22/06:00pm 12.3 - - - - E 7 11 4 6 1023.6 1023.6 -
22/05:30pm 12.2 - - - - E 9 13 5 7 1023.4 - -
22/05:00pm 12.3 - - - - E 7 11 4 6 1023.4 1023.4 -
22/04:30pm 12.3 - - - - E 9 13 5 7 1023.5 - -
22/04:00pm 11.9 - - - - E 9 13 5 7 1023.4 1023.4 -
22/03:30pm 11.8 - - - - E 9 11 5 6 1023.6 - -
22/03:00pm 11.7 - - - - E 7 11 4 6 1023.5 1023.5 -
22/02:30pm 11.5 - - - - E 7 9 4 5 1023.6 - -
22/02:00pm 11.4 - - - - ENE 6 7 3 4 1023.7 1023.7 -
22/01:30pm 11.1 - - - - ENE 6 7 3 4 1024.0 - -
22/01:00pm 11.2 - - - - NE 6 7 3 4 1024.6 1024.6 -
22/12:30pm 10.6 - - - - NNE 6 7 3 4 1025.0 - -
22/12:00pm 9.5 - - - - NNE 6 7 3 4 1025.5 1025.5 -
22/11:30am 8.3 - - - - N 7 11 4 6 1025.9 - -
22/11:00am 8.0 - - - - NNE 7 11 4 6 1026.2 1026.2 -
22/10:30am 7.9 - - - - N 7 11 4 6 1026.2 - -
22/10:00am 7.4 - - - - NNW 4 7 2 4 1026.3 1026.3 -
22/09:30am 6.0 - - - - WNW 2 6 1 3 1026.2 - -
22/09:00am 5.4 - - - - WNW 4 6 2 3 1026.1 1026.1 -
22/08:30am 4.9 - - - - W 4 4 2 2 1025.8 - -
22/08:00am 4.3 - - - - W 2 4 1 2 1025.6 1025.6 -
22/07:30am 4.0 - - - - W 4 6 2 3 1025.5 - -
22/07:00am 4.4 - - - - WNW 6 7 3 4 1025.2 1025.2 -
22/06:30am 4.0 - - - - W 7 9 4 5 1024.9 - -
22/06:00am 4.3 - - - - WNW 6 7 3 4 1024.6 1024.6 -
22/05:30am 4.1 - - - - W 6 7 3 4 1024.6 - -
22/05:00am 3.8 - - - - W 7 11 4 6 1024.5 1024.5 -
22/04:30am 3.7 - - - - W 6 7 3 4 1024.3 - -
22/04:00am 4.6 - - - - W 6 7 3 4 1024.2 1024.2 -
22/03:30am 4.8 - - - - W 6 7 3 4 1024.2 - -
22/03:00am 4.8 - - - - W 7 9 4 5 1024.3 1024.3 -
22/02:30am 5.0 - - - - SW 6 7 3 4 1024.3 - -
22/02:00am 5.5 - - - - WSW 2 4 1 2 1024.3 1024.3 -
22/01:30am 8.2 - - - - N 7 11 4 6 1024.3 - -
22/01:00am 5.8 - - - - WSW 4 7 2 4 1024.5 1024.5 -
22/12:30am 6.5 - - - - W 2 4 1 2 1024.8 - -
22/12:00am 6.4 - - - - W 4 6 2 3 1024.9 1024.9 -
 
Date/Time
EST
Temp
°C
App
Temp
°C
Dew
Point
Rel
Hum
%
Delta-T
°C
Wind Press
QNH
hPa
Press
MSL
hPa
Rain
since 9 am
mm
Dir
 
Spd
km/h
Gust
km/h
Spd
kts
Gust
kts
21/11:30pm 7.3 - - - - W 2 6 1 3 1024.8 - -
21/11:00pm 6.8 - - - - SW 4 7 2 4 1024.8 1024.8 -

Other Formats:

Comma delimited format used in spreadsheet applications
http://www.bom.gov.au/fwo/IDV60801/IDV60801.95826.axf

JavaScript Object Notation format (JSON) in row-major order
http://www.bom.gov.au/fwo/IDV60801/IDV60801.95826.json